Timeline UpdatesTrip UpdatesNews PostsPvt PostsTravel TipsAdmin PostsConv PostsFollowed PostsChat RequestsBlog PostsPNR Posts

Disclaimer
Search
 
 
Sat Apr 19, 2014 13:28:44 ISTHomeTrainsΣChainsAtlasPNRForumGalleryNewsFAQTripsMembersLoginFeedback
No Recent News for this Train
Other Trains in the News **new
Latest...
Extended to Punalur from 25th July '13
Wed Jul 24, 2013 (11:06AM)
⇐ Return Journey: Train# 56700

56701/Punalur Madurai Passenger

Oct 23 2013 (7:33PM)
Change Departure Station:
Change Arrival Station:
Post a Train Travel TipPost a Train Travel Tip **new
Post a Comment/Question/Picture/VideoPost a Comment/Question/Picture/Video
Pantry/Catering
✕ NO Pantry Car
✕ NO Catering
Loco/Rake Reversals
NCJ/Nagercoil Junction (3);
RSA - Rake Sharing
Rake/Coach Composition
SLR GEN GEN GEN GEN GEN GEN FC S1 S2 S3 S4 S5 S6 GEN GEN GEN SLR;;Author: Shubham Entry# 327672
Loco
PUU-NCJ-GOC WDM2. GOC WDP 3A/WDM-3A (NCJ-MDU)
News    PNR    Forum    Time-Table    Availability    Fare Chart    Map    Arr/Dep History    Trips    Gallery    ΣChains    X/O    Timeline    
Travel Time: 0h 22m    3 halts    Distance: 17 km    Avg Speed: 46 km/hr
Type: Passenger
Zone: SR/Southern
Departs @ 18:10 (Avg 10m late)
Platform# 6
SMTWTFS
Kollam Junction/QLN 
Arrives @ 18:32 (Avg 20m late)
Platform# 1
SMTWTFS
Kappil/KFI 

3 halts. 3 intermediate Stations between Kollam Junction and Kappil

Show ALL intermediate Stations  Show Old Time-Table

#CodeStation NameX/OArrivesAvgDepartsAvgHaltPFDay#KmSpeedElevZoneAddress
1PUUPunalur  -15:50+0--1-44.94740mSRTel: 0475 2222606, Kerala
2AVSAuvaneeswaram  16:00+516:01+61m--1-37.14222mSRAvaneeswaram Pathanapuram Rd, Kerala
3KIFKuri  16:07+716:08+71m--1-32.948 SRKollam District, Kerala
4KKZKottarakara  16:18+716:19+81m--1-24.94542mSRKottarakkara, Kerala
5EKNEzhukone  16:27+816:28+81m--1-18.85260mSRKollam-Tirumangalam Rd, Kerala
6KFVKundara East  16:33+816:34+81m--1-14.52854mSRKollam-Tirumangalam Rd, Kerala
7KUVKundara  16:38+816:39+81m--1-12.74545mSRKundara, Kerala
8CTPEChandanattop Halt  16:46+816:47+81m--1-7.42730mSRKilikkollur, Kerala
9KLQKilikollur  16:51+816:52+81m--1-5.6720mSRKollam, Kerala
10QLN»Kollam Junction (6)»XO  17:40+1718:10+1030m610.05516mSRKollam 0474-2746194, Kerala
11IRPEravipuram (2)X  18:15+1518:16+151m--14.65220mSRKollam, Kerala
12MYYMayyanad (2)X  18:21+1518:22+151m--18.95321mSRMayyanad, Kerala
13PVUParavur (3)X  18:26+1718:27+201m--112.45518mSRParavoor, Kerala
14KFI•Kappil (2)•  18:32+2018:33+201m1117.04220mSRKappil, Kerala
15EVAEdavai (2)  18:37+2018:38+201m--119.83828mSRThiruvananthapuram, Kerala
16VAKVarkala Sivagiri (3)X  18:44+2018:45+231m--123.66552mSREdava Kappil Road, Kerala
17AMYAkathumuri (2)  18:51+2218:52+221m--130.22313mSRAkathumuri Rd, Kerala
18KVUKadakavur (3)X  18:59+2219:00+251m--132.84620mSRKadakkavoor, Kerala
19CRYChirayinkeezhu (2)  19:04+2519:05+251m--135.96219mSRChirayinkeezhu, Kerala
20PGZPerunguzhi (2)XO  19:09+2219:10+221m--140.02218mSRPerunguzhi Railway Station, Kerala
21MQUMurukkampuzha (2)  19:19+2219:20+231m--143.35918mSRMurukkumpuzha, Kerala
22KXPKaniyapuram (2)X  19:24+2219:25+221m--147.32714mSRTrivandrum, Kerala
23KZKKazhakkuttam (3)X  19:34+2219:35+251m--151.34520mSRKulathoor ► Kazhakootam Road Kazhakootam PO Thiruvananthapuram, Kerala
24VELITrivandrum Veli (1)  19:39+2419:40+241m1154.3229mSRTrivandrum, Kerala
25KCVLTrivandrum Kochuveli (3)  19:49+2419:50+271m--157.64611mSRTrivandrum 695021, Kerala
26TVPThiruvananthapuram Pettah (2)O  19:56+919:57+91m--162.2418mSRTrivandrum Ph: 04712470181, Kerala
27TVCTrivandrum Central (5)  20:35+720:40+145m1164.65612mSRPh: 0471-2321622, Kerala
28BRAMBalaramapuram  20:54+1920:55+191m--177.84071mSRBalaramapuram, Kerala
29NYYNeyyattinkara  21:01+1921:02+221m--181.85411mSRThiruvananthapuram, Kerala
30DAVMDhanuvachapuram  21:09+2421:10+241m--188.15548mSRDhanuvachapuram, Kerala
31PASAParassala  21:15+2421:16+251m--192.710445mSRParassala, Kerala
32KZTWKuzhithurai West  21:20+2521:21+251m--199.72237mSRKanyakumari, Tamil Nadu
33KZTKulitturai  21:29+2521:30+271m--1102.65529mSRMarthandam, Tamil Nadu
34PYDPalliyadi  21:37+2921:38+291m--1109.04640mSRKanyakumari, Tamil Nadu
35ERLEranielX  21:49+2921:50+411m--1117.42019mSRKanyakumari, Tamil Nadu
36NCJNagercoil Junction (3)22:45+1023:00+1415m11135.74122mSRNagercoil-629002, Tamil Nadu
37AAYAralvaymoli  23:19+1423:20+141m--1148.85780mSRDist. Kanniyakumari, Tamil Nadu
38VLYValliyur  23:39+1423:40+151m--1166.96094mSRVallioor, Tamil Nadu
39NNNNanguneri  23:54+1423:55+151m--1181.04396mSRNanguneri, Tamil Nadu
40TENTirunelveli Junction (5)  00:35+700:40+145m--2209.95445mSRTirunelveli-627001, Tamil Nadu
41NRKNaraikkinarX  01:04+1501:05+161m--2231.34650mSRNaraikkinar, Tamil Nadu
42MEJVanchi Maniyachchi Junction (3)  01:14+1601:15+211m--2238.25970mSRThoothukudi, Tamil Nadu
43KDUKadambur (2)  01:29+2201:30+301m--2252.05690mSRKadambur, Tamil Nadu
44CVPKovilpattiX  01:54+3601:55+401m--2274.56190mSRKovilpatti, Tamil Nadu
45SRTSatur (2)X  02:16+4202:17+501m--2295.82065mSRPh No:04562 - 260243, Tamil Nadu
46VPTVirudunagar Junction (3)X  03:38+3003:40+532m--2323.264108mSRPh No: 04562-243747, Tamil Nadu
47TMQTirumangalam (3)X  04:04+1:0704:05+1:151m--2348.926132mSRTirumangalam, Tamil Nadu
48TDNTirupparankundram (2)  04:29+1:0304:30+1:191m--2359.54145mSRThirunagar, Tamil Nadu
49MDUMadurai Junction (8)  06:20+5-32366.4-139mSRMadurai 625001, Tamil Nadu
Scroll to Top
Scroll to Bottom